CMA CGM Turquoise — A8RB5 — position and weather

sailwx.info

Track history (hours):
 
Tides and Currents Weather Stations Pressure Air Temp Water Temp Dewpoint Dewpoint Depression Visibility Wind Speed Wind Dir Waves Ship Positions

CMA CGM Turquoise

Last reported at 2014-Oct-11 03:19 UTC. Time now 2014-Oct-25 17:26 UTC.
Position S 23°26' W 041°16'.
Warning: this ship's position is 14 days out of date.

Length 258 m; draft 11.7 m.

Type: Ship (hazmat cat A). MMSI: 636014059.

Date/timePositionNaut miles runAvg speedWind from/ knotsBaromVisibWave heightAir tempDewpointWater temp
2014-Oct-11 03:19S 23°26' W 041°16'282 7.5
2014-Oct-09 13:33S 24°05' W 046°22'8 8.1
2014-Oct-09 12:33S 23°58' W 046°18'2 2.4
2014-Oct-09 11:32S 23°56' W 046°20'0 0.0
2014-Oct-09 10:31S 23°56' W 046°20'0 0.0
2014-Oct-09 09:31S 23°56' W 046°20'0 0.0
2014-Oct-09 08:30S 23°56' W 046°20'0 0.0
2014-Oct-09 07:30S 23°56' W 046°20'0 0.0
2014-Oct-09 06:24S 23°56' W 046°20'0 0.0
2014-Oct-09 05:23S 23°56' W 046°20'0 0.0
2014-Oct-09 04:23S 23°56' W 046°20'0 0.0
2014-Oct-09 03:33S 23°56' W 046°20'0 0.0
2014-Oct-09 02:33S 23°56' W 046°20'0 0.0
2014-Oct-09 01:31S 23°56' W 046°20'0 0.0
2014-Oct-09 00:25S 23°56' W 046°20'0 0.0
2014-Oct-08 23:24S 23°56' W 046°20'0 0.0
2014-Oct-08 19:23S 23°56' W 046°20'0 0.0
2014-Oct-08 18:04S 23°56' W 046°20'0 0.0
2014-Oct-08 17:28S 23°56' W 046°20'0 0.0
2014-Oct-08 16:33S 23°56' W 046°20'0 0.0
2014-Oct-08 15:31S 23°56' W 046°20'0 0.0
2014-Oct-08 14:25S 23°56' W 046°20'0 0.0
2014-Oct-08 12:24S 23°56' W 046°20'0 0.0
2014-Oct-08 11:29S 23°56' W 046°20'0 0.0
2014-Oct-08 10:29S 23°56' W 046°20'0 0.0
2014-Oct-08 09:28S 23°56' W 046°20'0 0.0
2014-Oct-08 08:28S 23°56' W 046°20'0 0.0
2014-Oct-08 07:28S 23°56' W 046°20'0 0.1
2014-Oct-08 06:33S 23°56' W 046°20'0 0.0
2014-Oct-08 05:33S 23°56' W 046°20'3 2.7
2014-Oct-08 04:33S 23°58' W 046°18'9 8.9
2014-Oct-08 03:32S 24°06' W 046°22'  
2014-Oct-01 07:04S 34°45' W 057°37'510.4
2014-Oct-01 06:33S 34°44' W 057°44'7 7.4
2014-Oct-01 05:33S 34°42' W 057°52'1515.0
2014-Oct-01 04:34S 34°37' W 058°10'1010.0
2014-Oct-01 03:32S 34°35' W 058°22'  
Track history (hours):
 
Tides and Currents Weather Stations Pressure Air Temp Water Temp Dewpoint Dewpoint Depression Visibility Wind Speed Wind Dir Waves Ship Positions

CMA CGM Turquoise

Last reported at 2014-Oct-11 03:19 UTC. Time now 2014-Oct-25 17:26 UTC.
Position S 23°26' W 041°16'.
Warning: this ship's position is 14 days out of date.

Length 258 m; draft 11.7 m.

Type: Ship (hazmat cat A). MMSI: 636014059.

Date/timePositionNaut miles runAvg speedWind from/ knotsBaromVisibWave heightAir tempDewpointWater temp
2014-Oct-11 03:19S 23°26' W 041°16'282 7.5
2014-Oct-09 13:33S 24°05' W 046°22'8 8.1
2014-Oct-09 12:33S 23°58' W 046°18'2 2.4
2014-Oct-09 11:32S 23°56' W 046°20'0 0.0
2014-Oct-09 10:31S 23°56' W 046°20'0 0.0
2014-Oct-09 09:31S 23°56' W 046°20'0 0.0
2014-Oct-09 08:30S 23°56' W 046°20'0 0.0
2014-Oct-09 07:30S 23°56' W 046°20'0 0.0
2014-Oct-09 06:24S 23°56' W 046°20'0 0.0
2014-Oct-09 05:23S 23°56' W 046°20'0 0.0
2014-Oct-09 04:23S 23°56' W 046°20'0 0.0
2014-Oct-09 03:33S 23°56' W 046°20'0 0.0
2014-Oct-09 02:33S 23°56' W 046°20'0 0.0
2014-Oct-09 01:31S 23°56' W 046°20'0 0.0
2014-Oct-09 00:25S 23°56' W 046°20'0 0.0
2014-Oct-08 23:24S 23°56' W 046°20'0 0.0
2014-Oct-08 19:23S 23°56' W 046°20'0 0.0
2014-Oct-08 18:04S 23°56' W 046°20'0 0.0
2014-Oct-08 17:28S 23°56' W 046°20'0 0.0
2014-Oct-08 16:33S 23°56' W 046°20'0 0.0
2014-Oct-08 15:31S 23°56' W 046°20'0 0.0
2014-Oct-08 14:25S 23°56' W 046°20'0 0.0
2014-Oct-08 12:24S 23°56' W 046°20'0 0.0
2014-Oct-08 11:29S 23°56' W 046°20'0 0.0
2014-Oct-08 10:29S 23°56' W 046°20'0 0.0
2014-Oct-08 09:28S 23°56' W 046°20'0 0.0
2014-Oct-08 08:28S 23°56' W 046°20'0 0.0
2014-Oct-08 07:28S 23°56' W 046°20'0 0.1
2014-Oct-08 06:33S 23°56' W 046°20'0 0.0
2014-Oct-08 05:33S 23°56' W 046°20'3 2.7
2014-Oct-08 04:33S 23°58' W 046°18'9 8.9
2014-Oct-08 03:32S 24°06' W 046°22'  
2014-Oct-01 07:04S 34°45' W 057°37'510.4
2014-Oct-01 06:33S 34°44' W 057°44'7 7.4
2014-Oct-01 05:33S 34°42' W 057°52'1515.0
2014-Oct-01 04:34S 34°37' W 058°10'1010.0
2014-Oct-01 03:32S 34°35' W 058°22'  

Dump ship's entire track history